Terminal Aerodrome Forecast
Issued by NWS Sioux Falls, SD

Home | Current Version | Previous Version | Text Only | Print | Product List | Glossary Off
Versions: 1 2 3 4 5 6 7 8 9 10 11 12

000
FTUS43 KFSD 281122
TAFSUX
TAF
KSUX 281122Z 2812/2912 35004KT P6SM SCT250
     FM281600 35008KT P6SM SCT045
     FM282300 02007KT P6SM SCT090 BKN200
     FM290500 03005KT P6SM BKN070=

USA.gov is the U.S. government's official web portal to all federal, state and local government web resources and services.